createdAt,value
2023-01-19T00:00:51.552Z,98890.34
2023-01-19T00:03:18.585Z,98886.22
2023-01-19T00:05:46.636Z,98886.81
2023-01-19T00:08:16.448Z,98886.63
2023-01-19T00:10:51.532Z,98884.75
2023-01-19T00:13:18.969Z,98889.31
2023-01-19T00:15:45.850Z,98884.31
2023-01-19T00:18:12.541Z,98882.25
2023-01-19T00:20:40.367Z,98890.78
2023-01-19T00:23:08.256Z,98890.34
2023-01-19T00:25:35.653Z,98887.66
2023-01-19T00:28:02.273Z,98902.81
2023-01-19T00:30:29.062Z,98893.47
2023-01-19T00:32:56.429Z,98888.91
2023-01-19T00:35:23.075Z,98885.19
2023-01-19T00:37:49.748Z,98895.78
2023-01-19T00:40:17.471Z,98890.56
2023-01-19T00:42:44.646Z,98895.53
2023-01-19T00:45:21.443Z,98897.81
2023-01-19T00:47:50.202Z,98899.66
2023-01-19T00:50:17.454Z,98900.69
2023-01-19T00:52:45.736Z,98896.13
2023-01-19T00:55:14.870Z,98906.84
2023-01-19T00:57:42.401Z,98909.53
2023-01-19T01:00:13.534Z,98900.59
2023-01-19T01:02:42.616Z,98909.72
2023-01-19T01:05:10.928Z,98909.06
2023-01-19T01:07:41.275Z,98920.88
2023-01-19T01:10:11.493Z,98907.59
2023-01-19T01:12:39.042Z,98913.19
2023-01-19T01:15:07.978Z,98906.81
2023-01-19T01:17:34.675Z,98913.22
2023-01-19T01:20:01.304Z,98916.94
2023-01-19T01:22:28.204Z,98916.94
2023-01-19T01:24:54.861Z,98917.34
2023-01-19T01:27:21.491Z,98926.44
2023-01-19T01:29:48.152Z,98927.09
2023-01-19T01:32:15.880Z,98918.38
2023-01-19T01:34:42.792Z,98909.06
2023-01-19T01:37:09.411Z,98909.00
2023-01-19T01:39:36.221Z,98905.72
2023-01-19T01:42:14.613Z,98912.53
2023-01-19T01:44:56.677Z,98900.72
2023-01-19T01:47:42.313Z,98911.28
2023-01-19T01:50:14.243Z,98907.31
2023-01-19T01:53:06.512Z,98902.75
2023-01-19T01:55:38.108Z,98898.19
2023-01-19T01:58:06.039Z,98902.53
2023-01-19T02:00:52.853Z,98904.59
2023-01-19T02:03:20.262Z,98906.63
2023-01-19T02:05:47.100Z,98904.00
2023-01-19T02:08:47.894Z,98907.28
2023-01-19T02:11:33.401Z,98912.66
2023-01-19T02:14:00.092Z,98907.91
2023-01-19T02:16:27.216Z,98917.00
2023-01-19T02:18:53.891Z,98917.84
2023-01-19T02:21:23.474Z,98922.16
2023-01-19T02:23:55.765Z,98923.84
2023-01-19T02:26:29.715Z,98925.69
2023-01-19T02:29:08.646Z,98920.97
2023-01-19T02:31:37.747Z,98920.97
2023-01-19T02:34:06.243Z,98918.34
2023-01-19T02:36:38.939Z,98918.63
2023-01-19T02:39:08.538Z,98917.41
2023-01-19T02:41:40.872Z,98922.19
2023-01-19T02:44:09.676Z,98918.06
2023-01-19T02:46:38.340Z,98912.84
2023-01-19T02:49:04.948Z,98908.50
2023-01-19T02:51:32.274Z,98911.81
2023-01-19T02:54:04.748Z,98907.06
2023-01-19T02:56:44.127Z,98909.53
2023-01-19T02:59:28.220Z,98926.75
2023-01-19T03:02:11.418Z,98920.31
2023-01-19T03:04:48.212Z,98918.06
2023-01-19T03:07:21.249Z,98922.19
2023-01-19T03:10:12.254Z,98920.50
2023-01-19T03:12:48.281Z,98937.47
2023-01-19T03:15:27.536Z,98927.34
2023-01-19T03:17:54.727Z,98924.28
2023-01-19T03:20:25.547Z,98921.38
2023-01-19T03:23:00.634Z,98913.31
2023-01-19T03:25:31.405Z,98914.56
2023-01-19T03:27:58.301Z,98916.69
2023-01-19T03:30:32.941Z,98910.47
2023-01-19T03:33:12.229Z,98910.88
2023-01-19T03:35:44.712Z,98911.09
2023-01-19T03:38:16.735Z,98912.94
2023-01-19T03:40:45.731Z,98906.72
2023-01-19T03:43:16.639Z,98902.97
2023-01-19T03:45:44.246Z,98907.94
2023-01-19T03:48:11.019Z,98902.34
2023-01-19T03:50:37.745Z,98910.19
2023-01-19T03:53:10.272Z,98905.84
2023-01-19T03:55:39.642Z,98900.47
2023-01-19T03:58:06.877Z,98895.66
2023-01-19T04:00:34.686Z,98896.88
2023-01-19T04:03:01.655Z,98896.03
2023-01-19T04:05:29.476Z,98896.59
2023-01-19T04:07:56.127Z,98890.38
2023-01-19T04:10:24.022Z,98898.22
2023-01-19T04:12:58.700Z,98892.84
2023-01-19T04:15:26.746Z,98889.06
2023-01-19T04:17:53.428Z,98885.34
2023-01-19T04:20:21.752Z,98887.78
2023-01-19T04:22:49.667Z,98890.50
2023-01-19T04:25:16.618Z,98883.41
2023-01-19T04:27:43.279Z,98875.53
2023-01-19T04:30:10.643Z,98869.13
2023-01-19T04:32:37.251Z,98867.47
2023-01-19T04:35:04.056Z,98868.69
2023-01-19T04:37:30.709Z,98869.50
2023-01-19T04:39:57.414Z,98869.66
2023-01-19T04:42:24.379Z,98878.56
2023-01-19T04:44:52.612Z,98875.84
2023-01-19T04:47:20.406Z,98875.16
2023-01-19T04:49:49.104Z,98868.97
2023-01-19T04:52:15.727Z,98868.22
2023-01-19T04:54:42.337Z,98874.84
2023-01-19T04:57:08.958Z,98873.16
2023-01-19T04:59:35.734Z,98874.81
2023-01-19T05:02:02.429Z,98879.75
2023-01-19T05:04:29.151Z,98880.53
2023-01-19T05:06:56.076Z,98883.81
2023-01-19T05:09:22.676Z,98880.91
2023-01-19T05:11:49.308Z,98878.78
2023-01-19T05:14:16.452Z,98878.59
2023-01-19T05:16:43.088Z,98879.84
2023-01-19T05:19:09.687Z,98882.53
2023-01-19T05:21:36.316Z,98878.56
2023-01-19T05:24:03.039Z,98883.53
2023-01-19T05:26:29.702Z,98882.91
2023-01-19T05:28:56.864Z,98882.09
2023-01-19T05:31:23.711Z,98888.31
2023-01-19T05:33:50.509Z,98884.19
2023-01-19T05:36:17.148Z,98895.41
2023-01-19T05:38:43.781Z,98896.19
2023-01-19T05:41:10.913Z,98897.84
2023-01-19T05:43:37.548Z,98899.28
2023-01-19T05:46:06.269Z,98891.66
2023-01-19T05:48:32.929Z,98890.44
2023-01-19T05:51:01.382Z,98893.75
2023-01-19T05:53:28.905Z,98903.09
2023-01-19T05:56:01.333Z,98884.28
2023-01-19T05:58:28.839Z,98879.13
2023-01-19T06:00:55.742Z,98886.81
2023-01-19T06:03:22.407Z,98883.47
2023-01-19T06:05:49.082Z,98889.25
2023-01-19T06:08:15.710Z,98882.00
2023-01-19T06:10:44.931Z,98880.38
2023-01-19T06:13:11.874Z,98881.81
2023-01-19T06:15:38.550Z,98872.31
2023-01-19T06:18:05.648Z,98881.44
2023-01-19T06:20:32.446Z,98888.41
2023-01-19T06:22:59.759Z,98895.47
2023-01-19T06:25:26.649Z,98891.94
2023-01-19T06:27:53.423Z,98885.28
2023-01-19T06:30:20.389Z,98880.75
2023-01-19T06:32:47.781Z,98880.09
2023-01-19T06:35:14.837Z,98886.50
2023-01-19T06:37:41.518Z,98889.41
2023-01-19T06:40:09.393Z,98883.38
2023-01-19T06:42:36.562Z,98886.72
2023-01-19T06:45:03.575Z,98885.25
2023-01-19T06:47:30.836Z,98891.25
2023-01-19T06:49:57.629Z,98885.00
2023-01-19T06:52:24.301Z,98889.09
2023-01-19T06:54:50.988Z,98888.97
2023-01-19T06:57:17.776Z,98899.50
2023-01-19T06:59:44.596Z,98896.66
2023-01-19T07:02:26.178Z,98898.28
2023-01-19T07:04:54.894Z,98905.34
2023-01-19T07:07:21.575Z,98906.16
2023-01-19T07:09:54.111Z,98903.69
2023-01-19T07:12:22.177Z,98901.44
2023-01-19T07:14:49.801Z,98898.78
2023-01-19T07:17:16.807Z,98902.94
2023-01-19T07:19:43.475Z,98900.03
2023-01-19T07:22:10.253Z,98903.16
2023-01-19T07:24:38.079Z,98906.72
2023-01-19T07:27:05.467Z,98904.22
2023-01-19T07:29:32.153Z,98914.53
2023-01-19T07:31:58.836Z,98910.44
2023-01-19T07:34:25.484Z,98903.03
2023-01-19T07:36:52.093Z,98905.88
2023-01-19T07:39:18.781Z,98900.31
2023-01-19T07:41:45.445Z,98897.63
2023-01-19T07:44:12.194Z,98905.06
2023-01-19T07:46:38.837Z,98906.72
2023-01-19T07:49:05.576Z,98905.66
2023-01-19T07:51:32.325Z,98904.81
2023-01-19T07:53:58.969Z,98901.69
2023-01-19T07:56:27.812Z,98904.53
2023-01-19T07:58:55.229Z,98904.34
2023-01-19T08:01:22.764Z,98912.41
2023-01-19T08:03:50.376Z,98913.50
2023-01-19T08:06:21.887Z,98917.69
2023-01-19T08:08:48.653Z,98917.91
2023-01-19T08:11:15.462Z,98925.78
2023-01-19T08:13:42.992Z,98922.91
2023-01-19T08:16:10.531Z,98911.34
2023-01-19T08:18:37.246Z,98914.88
2023-01-19T08:21:04.560Z,98918.38
2023-01-19T08:23:31.335Z,98932.88
2023-01-19T08:25:57.972Z,98929.56
2023-01-19T08:28:24.911Z,98932.44
2023-01-19T08:30:54.711Z,98935.75
2023-01-19T08:33:23.225Z,98935.75
2023-01-19T08:35:53.990Z,98941.97
2023-01-19T08:38:20.772Z,98939.72
2023-01-19T08:40:48.764Z,98943.28
2023-01-19T08:43:16.995Z,98938.72
2023-01-19T08:45:48.221Z,98944.94
2023-01-19T08:48:17.727Z,98944.34
2023-01-19T08:50:48.228Z,98945.81
2023-01-19T08:53:16.104Z,98957.22
2023-01-19T08:55:42.780Z,98959.72
2023-01-19T08:58:09.875Z,98947.53
2023-01-19T09:00:38.114Z,98958.53
2023-01-19T09:03:07.330Z,98961.22
2023-01-19T09:05:37.465Z,98963.31
2023-01-19T09:08:09.676Z,98960.44
2023-01-19T09:10:39.277Z,98962.94
2023-01-19T09:13:09.650Z,98972.09
2023-01-19T09:18:25.422Z,98973.97
2023-01-19T09:20:52.116Z,98978.31
2023-01-19T09:23:20.367Z,98974.78
2023-01-19T09:25:48.129Z,98974.97
2023-01-19T09:28:17.616Z,98983.91
2023-01-19T09:30:44.979Z,98980.41
2023-01-19T09:33:17.700Z,98988.72
2023-01-19T09:35:46.195Z,98987.94
2023-01-19T09:38:15.409Z,98983.78
2023-01-19T09:40:44.197Z,98983.97
2023-01-19T09:43:48.237Z,98982.97
2023-01-19T09:46:36.155Z,98982.16
2023-01-19T09:49:12.880Z,98985.50
2023-01-19T09:51:43.800Z,98979.72
2023-01-19T09:54:50.090Z,98985.53
2023-01-19T09:57:16.785Z,98990.75
2023-01-19T09:59:43.998Z,98994.91
2023-01-19T10:02:23.344Z,98991.81
2023-01-19T10:05:39.904Z,98998.47
2023-01-19T10:08:19.406Z,98995.53
2023-01-19T10:10:52.084Z,99007.59
2023-01-19T10:13:25.170Z,99001.13
2023-01-19T10:16:19.382Z,99008.59
2023-01-19T10:18:47.970Z,99000.06
2023-01-19T10:21:24.930Z,98997.56
2023-01-19T10:24:00.205Z,99014.16
2023-01-19T10:26:43.838Z,99015.56
2023-01-19T10:29:36.395Z,99020.75
2023-01-19T10:32:11.854Z,99019.47
2023-01-19T10:34:38.746Z,99025.72
2023-01-19T10:37:18.116Z,99034.38
2023-01-19T10:39:53.817Z,99030.00
2023-01-19T10:42:20.815Z,99035.19
2023-01-19T10:44:49.211Z,99022.66
2023-01-19T10:47:21.260Z,99034.50
2023-01-19T10:49:49.149Z,99033.84
2023-01-19T10:52:49.549Z,99036.72
2023-01-19T10:55:38.181Z,99038.94
2023-01-19T10:58:06.931Z,99043.69
2023-01-19T11:00:41.295Z,99049.09
2023-01-19T11:03:31.351Z,99037.47
2023-01-19T11:06:16.201Z,99037.47
2023-01-19T11:08:44.323Z,99036.25
2023-01-19T11:11:12.658Z,99037.13
2023-01-19T11:13:41.277Z,99038.44
2023-01-19T11:16:31.664Z,99037.63
2023-01-19T11:19:02.062Z,99039.03
2023-01-19T11:21:30.640Z,99044.19
2023-01-19T11:24:00.712Z,99045.81
2023-01-19T11:26:33.524Z,99043.28
2023-01-19T11:29:03.456Z,99042.56
2023-01-19T11:31:30.046Z,99053.56
2023-01-19T11:34:05.671Z,99052.69
2023-01-19T11:36:35.669Z,99058.88
2023-01-19T11:39:28.265Z,99055.28
2023-01-19T11:42:03.075Z,99048.63
2023-01-19T11:44:50.491Z,99045.53
2023-01-19T11:47:42.601Z,99035.59
2023-01-19T11:50:15.043Z,99039.50
2023-01-19T11:52:44.576Z,99037.06
2023-01-19T11:55:22.057Z,99034.03
2023-01-19T11:57:52.832Z,99029.47
2023-01-19T12:00:25.016Z,99036.31
2023-01-19T12:03:15.672Z,99034.88
2023-01-19T12:05:48.416Z,99033.41
2023-01-19T12:08:20.761Z,99041.09
2023-01-19T12:10:50.847Z,99038.38
2023-01-19T12:13:26.511Z,99045.44
2023-01-19T12:16:22.471Z,99036.28
2023-01-19T12:19:14.580Z,99042.66
2023-01-19T12:21:41.771Z,99036.84
2023-01-19T12:24:23.896Z,99047.66
2023-01-19T12:26:57.131Z,99034.91
2023-01-19T12:29:32.183Z,99041.16
2023-01-19T12:32:14.254Z,99021.75
2023-01-19T12:34:42.975Z,99033.03
2023-01-19T12:37:28.895Z,99016.97
2023-01-19T12:39:59.138Z,99025.91
2023-01-19T12:42:28.295Z,99018.41
2023-01-19T12:45:25.805Z,99026.97
2023-01-19T12:47:53.961Z,99015.03
2023-01-19T12:50:25.739Z,99011.88
2023-01-19T12:53:03.636Z,99012.94
2023-01-19T12:55:33.330Z,99007.63
2023-01-19T12:58:24.197Z,99007.72
2023-01-19T13:01:15.329Z,99011.47
2023-01-19T13:03:59.219Z,99011.47
2023-01-19T13:06:58.252Z,99017.97
2023-01-19T13:09:32.139Z,99025.69
2023-01-19T13:12:23.086Z,99016.47
2023-01-19T13:14:50.995Z,99017.22
2023-01-19T13:17:26.638Z,99012.47
2023-01-19T13:20:03.122Z,99013.75
2023-01-19T13:22:50.143Z,99010.16
2023-01-19T13:25:29.204Z,99012.03
2023-01-19T13:27:56.893Z,99016.00
2023-01-19T13:30:28.301Z,99019.53
2023-01-19T13:33:10.474Z,99023.06
2023-01-19T13:35:37.617Z,99021.97
2023-01-19T13:38:05.914Z,99018.19
2023-01-19T13:40:41.920Z,99032.59
2023-01-19T13:43:18.378Z,99024.47
2023-01-19T13:45:53.377Z,99023.41
2023-01-19T13:48:24.936Z,99023.41
2023-01-19T13:51:06.417Z,99035.66
2023-01-19T13:53:34.253Z,99031.69
2023-01-19T13:56:18.377Z,99033.72
2023-01-19T13:58:59.546Z,99034.72
2023-01-19T14:01:29.232Z,99036.75
2023-01-19T14:03:57.314Z,99042.16
2023-01-19T14:06:45.647Z,99045.50
2023-01-19T14:09:20.045Z,99048.13
2023-01-19T14:12:14.850Z,99049.78
2023-01-19T14:14:44.674Z,99056.69
2023-01-19T14:17:28.232Z,99055.19
2023-01-19T14:20:01.119Z,99052.44
2023-01-19T14:22:38.664Z,99054.25
2023-01-19T14:25:35.608Z,99062.97
2023-01-19T14:28:39.398Z,99069.25
2023-01-19T14:31:23.016Z,99069.38
2023-01-19T14:33:53.222Z,99068.72
2023-01-19T14:36:39.382Z,99074.56
2023-01-19T14:39:17.857Z,99084.59
2023-01-19T14:41:49.240Z,99080.69
2023-01-19T14:44:24.524Z,99078.41
2023-01-19T14:46:51.345Z,99083.47
2023-01-19T14:49:28.094Z,99084.75
2023-01-19T14:51:56.090Z,99081.94
2023-01-19T14:54:33.771Z,99094.38
2023-01-19T14:57:00.445Z,99098.72
2023-01-19T14:59:27.478Z,99106.66
2023-01-19T15:01:54.374Z,99095.59
2023-01-19T15:04:21.260Z,99106.66
2023-01-19T15:06:48.528Z,99105.59
2023-01-19T15:09:17.350Z,99108.97
2023-01-19T15:11:46.998Z,99117.28
2023-01-19T15:14:15.460Z,99112.75
2023-01-19T15:16:42.845Z,99116.97
2023-01-19T15:19:12.100Z,99114.84
2023-01-19T15:21:42.202Z,99120.72
2023-01-19T15:24:10.813Z,99117.81
2023-01-19T15:26:39.900Z,99125.22
2023-01-19T15:29:24.624Z,99132.13
2023-01-19T15:31:52.560Z,99130.00
2023-01-19T15:34:19.255Z,99122.53
2023-01-19T15:36:45.948Z,99125.91
2023-01-19T15:39:12.600Z,99128.63
2023-01-19T15:41:40.512Z,99126.41
2023-01-19T15:44:10.848Z,99139.13
2023-01-19T15:46:38.111Z,99148.34
2023-01-19T15:49:05.862Z,99153.56
2023-01-19T15:51:33.421Z,99160.91
2023-01-19T15:54:00.394Z,99150.53
2023-01-19T15:56:29.764Z,99157.03
2023-01-19T15:58:58.788Z,99160.28
2023-01-19T16:01:31.502Z,99161.94
2023-01-19T16:04:01.447Z,99164.50
2023-01-19T16:06:29.027Z,99166.63
2023-01-19T16:08:59.809Z,99167.53
2023-01-19T16:11:29.984Z,99174.81
2023-01-19T16:13:56.766Z,99172.94
2023-01-19T16:16:25.319Z,99173.41
2023-01-19T16:18:52.356Z,99179.81
2023-01-19T16:21:21.124Z,99187.09
2023-01-19T16:23:47.789Z,99194.81
2023-01-19T16:26:28.448Z,99204.19
2023-01-19T16:29:07.959Z,99207.56
2023-01-19T16:31:37.007Z,99203.84
2023-01-19T16:34:04.895Z,99200.53
2023-01-19T16:36:33.643Z,99213.25
2023-01-19T16:39:02.514Z,99219.72
2023-01-19T16:41:29.928Z,99220.53
2023-01-19T16:43:58.206Z,99228.25
2023-01-19T16:46:27.990Z,99230.56
2023-01-19T16:48:59.967Z,99229.97
2023-01-19T16:51:26.782Z,99231.47
2023-01-19T16:53:53.411Z,99238.16
2023-01-19T16:56:20.571Z,99243.78
2023-01-19T16:58:47.454Z,99257.28
2023-01-19T17:01:20.367Z,99250.63
2023-01-19T17:03:47.822Z,99260.19
2023-01-19T17:06:22.698Z,99263.09
2023-01-19T17:08:50.995Z,99258.97
2023-01-19T17:11:21.313Z,99274.38
2023-01-19T17:13:57.841Z,99270.63
2023-01-19T17:16:25.224Z,99267.50
2023-01-19T17:18:52.718Z,99276.41
2023-01-19T17:21:20.308Z,99278.91
2023-01-19T17:23:49.019Z,99284.31
2023-01-19T17:26:17.075Z,99292.63
2023-01-19T17:29:08.297Z,99289.31
2023-01-19T17:32:11.526Z,99287.88
2023-01-19T17:34:38.613Z,99303.03
2023-01-19T17:37:05.335Z,99297.59
2023-01-19T17:39:32.192Z,99298.88
2023-01-19T17:41:58.843Z,99296.34
2023-01-19T17:44:25.731Z,99305.06
2023-01-19T17:46:53.799Z,99306.94
2023-01-19T17:49:20.946Z,99314.44
2023-01-19T17:51:51.978Z,99325.22
2023-01-19T17:54:18.719Z,99314.38
2023-01-19T17:56:46.762Z,99315.22
2023-01-19T17:59:13.526Z,99312.69
2023-01-19T18:01:43.316Z,99323.28
2023-01-19T18:04:12.349Z,99322.22
2023-01-19T18:06:39.281Z,99327.38
2023-01-19T18:09:07.489Z,99327.38
2023-01-19T18:11:35.052Z,99332.38
2023-01-19T18:14:02.243Z,99339.03
2023-01-19T18:16:29.673Z,99341.06
2023-01-19T18:18:57.403Z,99340.63
2023-01-19T18:21:27.421Z,99340.63
2023-01-19T18:24:02.450Z,99339.19
2023-01-19T18:26:29.783Z,99336.44
2023-01-19T18:28:57.503Z,99343.09
2023-01-19T18:31:26.057Z,99339.28
2023-01-19T18:33:53.093Z,99348.84
2023-01-19T18:36:20.291Z,99351.56
2023-01-19T18:38:47.756Z,99346.53
2023-01-19T18:41:17.363Z,99354.19
2023-01-19T18:43:44.862Z,99366.41
2023-01-19T18:46:11.732Z,99372.41
2023-01-19T18:48:39.903Z,99369.91
2023-01-19T18:51:11.016Z,99373.19
2023-01-19T18:53:38.582Z,99377.47
2023-01-19T18:56:06.053Z,99382.47
2023-01-19T18:58:38.337Z,99385.75
2023-01-19T19:01:15.691Z,99382.81
2023-01-19T19:03:48.773Z,99381.78
2023-01-19T19:06:17.202Z,99391.16
2023-01-19T19:08:44.462Z,99381.81
2023-01-19T19:11:20.192Z,99387.22
2023-01-19T19:13:51.121Z,99391.63
2023-01-19T19:16:24.320Z,99389.38
2023-01-19T19:18:51.479Z,99395.03
2023-01-19T19:21:28.805Z,99389.41
2023-01-19T19:23:59.439Z,99388.81
2023-01-19T19:26:28.191Z,99387.81
2023-01-19T19:28:55.250Z,99373.28
2023-01-19T19:31:25.830Z,99389.47
2023-01-19T19:33:52.653Z,99388.88
2023-01-19T19:36:20.274Z,99395.75
2023-01-19T19:38:47.920Z,99400.53
2023-01-19T19:41:53.015Z,99411.75
2023-01-19T19:47:13.994Z,99405.47
2023-01-19T19:49:40.969Z,99407.34
2023-01-19T19:52:08.078Z,99413.16
2023-01-19T19:54:34.724Z,99412.34
2023-01-19T19:57:01.415Z,99413.75
2023-01-19T19:59:28.169Z,99422.44
2023-01-19T20:01:55.191Z,99419.31
2023-01-19T20:04:26.405Z,99427.59
2023-01-19T20:06:53.742Z,99425.53
2023-01-19T20:09:20.388Z,99440.75
2023-01-19T20:11:49.070Z,99447.81
2023-01-19T20:14:18.278Z,99435.97
2023-01-19T20:16:45.572Z,99452.16
2023-01-19T20:19:18.027Z,99450.50
2023-01-19T20:21:44.879Z,99454.03
2023-01-19T20:24:20.926Z,99456.34
2023-01-19T20:26:57.051Z,99459.91
2023-01-19T20:29:26.777Z,99460.94
2023-01-19T20:31:55.829Z,99464.03
2023-01-19T20:34:26.392Z,99471.75
2023-01-19T20:36:54.427Z,99471.97
2023-01-19T20:39:23.676Z,99469.34
2023-01-19T20:41:51.423Z,99483.47
2023-01-19T20:44:21.469Z,99487.66
2023-01-19T20:47:00.170Z,99487.50
2023-01-19T20:49:30.960Z,99496.03
2023-01-19T20:51:58.037Z,99503.53
2023-01-19T20:54:27.513Z,99500.88
2023-01-19T20:56:54.547Z,99501.56
2023-01-19T20:59:21.808Z,99502.41
2023-01-19T21:01:49.398Z,99503.69
2023-01-19T21:04:17.196Z,99510.34
2023-01-19T21:06:44.290Z,99504.31
2023-01-19T21:09:16.366Z,99506.16
2023-01-19T21:11:43.016Z,99516.59
2023-01-19T21:14:09.805Z,99513.28
2023-01-19T21:16:37.487Z,99514.75
2023-01-19T21:19:05.143Z,99517.25
2023-01-19T21:21:33.267Z,99522.69
2023-01-19T21:24:02.529Z,99515.41
2023-01-19T21:26:41.718Z,99514.81
2023-01-19T21:29:40.959Z,99515.25
2023-01-19T21:32:29.702Z,99519.00
2023-01-19T21:38:52.347Z,99516.16
2023-01-19T21:42:10.938Z,99524.28
2023-01-19T21:45:07.440Z,99530.31
2023-01-19T21:47:37.062Z,99533.47
2023-01-19T21:50:04.565Z,99536.78
2023-01-19T21:52:31.232Z,99533.91
2023-01-19T21:54:57.896Z,99535.75
2023-01-19T21:57:24.524Z,99544.13
2023-01-19T21:59:53.041Z,99533.09
2023-01-19T22:02:33.272Z,99544.97
2023-01-19T22:05:06.599Z,99544.34
2023-01-19T22:07:33.387Z,99549.75
2023-01-19T22:10:00.092Z,99552.47
2023-01-19T22:12:26.987Z,99548.53
2023-01-19T22:14:53.844Z,99548.09
2023-01-19T22:17:21.025Z,99556.84
2023-01-19T22:19:48.491Z,99557.25
2023-01-19T22:22:15.460Z,99550.59
2023-01-19T22:24:46.570Z,99555.59
2023-01-19T22:27:13.547Z,99561.44
2023-01-19T22:29:40.167Z,99563.94
2023-01-19T22:32:07.076Z,99566.66
2023-01-19T22:34:33.929Z,99560.19
2023-01-19T22:37:00.883Z,99555.63
2023-01-19T22:39:28.100Z,99564.38
2023-01-19T22:41:54.798Z,99567.25
2023-01-19T22:44:22.440Z,99569.56
2023-01-19T22:46:50.602Z,99573.75
2023-01-19T22:49:18.200Z,99576.03
2023-01-19T22:51:45.499Z,99569.78
2023-01-19T22:54:12.656Z,99575.19
2023-01-19T22:56:40.397Z,99577.69
2023-01-19T22:59:07.253Z,99573.53
2023-01-19T23:01:39.648Z,99585.19
2023-01-19T23:04:07.472Z,99568.56
2023-01-19T23:06:35.960Z,99576.47
2023-01-19T23:09:06.269Z,99573.97
2023-01-19T23:11:38.964Z,99581.66
2023-01-19T23:14:07.448Z,99582.53
2023-01-19T23:16:35.299Z,99592.50
2023-01-19T23:19:02.230Z,99587.06
2023-01-19T23:21:30.739Z,99591.88
2023-01-19T23:24:00.154Z,99594.13
2023-01-19T23:26:27.443Z,99593.09
2023-01-19T23:28:56.710Z,99597.44
2023-01-19T23:31:29.061Z,99595.78
2023-01-19T23:34:01.239Z,99596.19
2023-01-19T23:36:30.932Z,99602.41
2023-01-19T23:39:00.368Z,99598.44
2023-01-19T23:41:29.257Z,99609.91
2023-01-19T23:43:56.000Z,99604.28
2023-01-19T23:46:22.787Z,99610.09
2023-01-19T23:48:50.590Z,99612.19
2023-01-19T23:51:20.196Z,99608.03
2023-01-19T23:53:47.846Z,99595.97
2023-01-19T23:56:20.855Z,99605.13
2023-01-19T23:58:52.219Z,99618.03
